Time;durP1;ratioP1;P1;durP2;ratioP2;P2;SDS_P1;SDS_P2;PMS_P1;PMS_P2;Temp;Humidity;BMP_temperature;BMP_pressure;BME280_temperature;BME280_humidity;BME280_pressure;Samples;Min_cycle;Max_cycle;Signal;HPM_P1;HPM_P2
2021/12/13 00:02:05;;;;;;;1.37;1.27;;;19.50;52.30;;;;;;4981534;28;20243;-22
2021/12/13 00:04:45;;;;;;;2.07;1.50;;;19.50;52.50;;;;;;4980845;28;20243;-23
2021/12/13 00:07:16;;;;;;;1.50;1.30;;;19.40;52.60;;;;;;4980749;28;20246;-24
2021/12/13 00:09:49;;;;;;;1.20;1.10;;;19.40;52.70;;;;;;4997236;28;20246;-22
2021/12/13 00:12:33;;;;;;;1.70;1.30;;;19.30;52.70;;;;;;4997307;28;20195;-21
2021/12/13 00:15:00;;;;;;;2.63;1.40;;;19.30;52.80;;;;;;4980370;28;20537;-23
2021/12/13 00:17:35;;;;;;;1.37;1.27;;;19.30;52.90;;;;;;4997182;28;20219;-24
2021/12/13 00:20:16;;;;;;;2.70;1.30;;;19.30;53.00;;;;;;4980541;28;20203;-22
2021/12/13 00:22:51;;;;;;;1.30;1.20;;;19.20;53.10;;;;;;4997269;28;20259;-23
2021/12/13 00:25:23;;;;;;;1.60;1.50;;;19.10;53.20;;;;;;4980643;28;20206;-25
2021/12/13 00:28:04;;;;;;;1.80;1.50;;;19.10;53.30;;;;;;4980481;28;20193;-22
2021/12/13 00:30:41;;;;;;;1.47;1.20;;;19.10;53.40;;;;;;4997175;28;20191;-24
2021/12/13 00:33:12;;;;;;;1.40;1.30;;;19.10;53.50;;;;;;4997186;28;20195;-19
2021/12/13 00:36:03;;;;;;;1.87;1.40;;;19.10;53.70;;;;;;4997320;28;20245;-21
2021/12/13 00:38:34;;;;;;;2.20;1.40;;;19.00;53.70;;;;;;4985071;28;20498;-21
2021/12/13 00:41:05;;;;;;;1.27;1.17;;;19.00;53.80;;;;;;5000230;28;20296;-22
2021/12/13 00:43:40;;;;;;;1.40;1.17;;;19.00;53.90;;;;;;5000920;28;20188;-23
2021/12/13 00:46:10;;;;;;;1.50;1.40;;;19.00;54.00;;;;;;5001193;28;20204;-22
2021/12/13 00:48:38;;;;;;;1.77;1.40;;;18.90;54.00;;;;;;5001069;28;20194;-26
2021/12/13 00:51:10;;;;;;;1.77;1.37;;;18.90;54.10;;;;;;5001001;28;20209;-23
2021/12/13 00:53:38;;;;;;;1.50;1.40;;;18.90;54.20;;;;;;5000792;28;20188;-23
2021/12/13 00:56:41;;;;;;;1.30;1.20;;;18.90;54.30;;;;;;5000392;28;20198;-25
2021/12/13 00:59:09;;;;;;;1.87;1.20;;;18.80;54.20;;;;;;4999868;28;20199;-21
2021/12/13 01:01:36;;;;;;;1.70;1.30;;;18.80;54.40;;;;;;4999763;28;20211;-23
2021/12/13 01:04:08;;;;;;;1.43;1.33;;;18.80;54.40;;;;;;4983129;28;20665;-22
2021/12/13 01:07:11;;;;;;;1.50;1.30;;;18.70;54.50;;;;;;5000609;28;20229;-26
2021/12/13 01:10:14;;;;;;;1.80;1.23;;;18.70;54.60;;;;;;5000945;28;20197;-23
2021/12/13 01:12:42;;;;;;;1.30;1.20;;;18.70;54.60;;;;;;4999784;28;20205;-24
2021/12/13 01:15:35;;;;;;;1.70;1.10;;;18.70;54.70;;;;;;4983531;28;20214;-22
2021/12/13 01:18:33;;;;;;;1.33;1.23;;;18.70;54.80;;;;;;4999317;28;20205;-20
2021/12/13 01:21:27;;;;;;;1.70;1.30;;;18.60;54.80;;;;;;4983286;28;20194;-21
2021/12/13 01:24:04;;;;;;;1.50;1.10;;;18.60;54.90;;;;;;4999474;28;20631;-23
2021/12/13 01:26:38;;;;;;;1.60;1.30;;;18.60;55.00;;;;;;5000141;28;20191;-23
2021/12/13 01:29:10;;;;;;;1.83;1.40;;;18.60;55.10;;;;;;4983257;28;20202;-23
2021/12/13 01:31:47;;;;;;;1.20;1.10;;;18.60;55.10;;;;;;4983061;28;20184;-23
2021/12/13 01:34:15;;;;;;;1.40;1.30;;;18.60;55.10;;;;;;4999720;28;20217;-23
2021/12/13 01:36:53;;;;;;;1.97;1.20;;;18.50;55.20;;;;;;5000188;28;20206;-23
2021/12/13 01:39:24;;;;;;;1.13;1.03;;;18.50;55.30;;;;;;4982981;28;20201;-25
2021/12/13 01:41:59;;;;;;;1.30;1.20;;;18.50;55.40;;;;;;4998893;28;20679;-22
2021/12/13 01:44:31;;;;;;;1.30;1.20;;;18.50;55.40;;;;;;4979054;28;20241;-23
2021/12/13 01:47:04;;;;;;;1.53;1.20;;;18.50;55.50;;;;;;4998760;28;20201;-22
2021/12/13 01:49:46;;;;;;;1.50;1.10;;;18.50;55.60;;;;;;4999286;28;20607;-21
2021/12/13 01:52:27;;;;;;;1.30;1.20;;;18.40;55.60;;;;;;4999867;28;20518;-23
2021/12/13 01:54:57;;;;;;;1.47;1.20;;;18.40;55.60;;;;;;4982522;28;20257;-20
2021/12/13 01:57:38;;;;;;;1.30;1.20;;;18.40;55.70;;;;;;4999723;28;20186;-21
2021/12/13 02:00:21;;;;;;;2.83;1.30;;;18.40;55.70;;;;;;4999787;28;20228;-23
2021/12/13 02:02:54;;;;;;;2.33;1.20;;;18.40;55.90;;;;;;4999394;28;20190;-23
2021/12/13 02:05:24;;;;;;;1.83;1.20;;;18.40;55.90;;;;;;4998875;28;20228;-25
2021/12/13 02:08:08;;;;;;;1.20;1.10;;;18.30;56.00;;;;;;4999492;28;20665;-22
2021/12/13 02:10:38;;;;;;;1.20;1.10;;;18.30;56.00;;;;;;4999349;28;20618;-24
2021/12/13 02:13:17;;;;;;;1.20;1.10;;;18.30;56.10;;;;;;4999374;28;20495;-23
2021/12/13 02:18:34;;;;;;;1.40;1.17;;;18.30;56.20;;;;;;4998976;28;20825;-24
2021/12/13 02:21:16;;;;;;;1.30;1.20;;;18.30;56.20;;;;;;4982444;28;20424;-22
2021/12/13 02:23:47;;;;;;;1.20;1.10;;;18.30;56.30;;;;;;4999467;28;20202;-21
2021/12/13 02:26:13;;;;;;;2.00;1.20;;;18.30;56.30;;;;;;4998542;28;20218;-21
2021/12/13 02:28:44;;;;;;;1.37;1.20;;;18.20;56.30;;;;;;4998544;28;20191;-22
2021/12/13 02:31:21;;;;;;;1.43;1.20;;;18.20;56.40;;;;;;4981194;28;20201;-23
2021/12/13 02:33:54;;;;;;;1.47;1.37;;;18.20;56.40;;;;;;4981363;28;20175;-23
2021/12/13 02:36:32;;;;;;;1.37;1.10;;;18.20;56.40;;;;;;4996409;28;20573;-25
2021/12/13 02:39:02;;;;;;;1.50;1.20;;;18.20;56.50;;;;;;4998652;28;20740;-24
2021/12/13 02:41:31;;;;;;;1.47;1.13;;;18.20;56.50;;;;;;4981312;28;20204;-22
2021/12/13 02:44:02;;;;;;;1.20;1.10;;;18.20;56.60;;;;;;4998429;28;20219;-21
2021/12/13 02:46:28;;;;;;;1.33;1.23;;;18.20;56.60;;;;;;4998412;28;20214;-21
2021/12/13 02:49:04;;;;;;;1.30;1.10;;;18.20;56.70;;;;;;4981712;28;20190;-21
2021/12/13 02:51:49;;;;;;;1.20;1.10;;;18.10;56.70;;;;;;4971660;28;20204;-24
2021/12/13 02:54:39;;;;;;;0.97;0.93;;;18.10;57.10;;;;;;4997578;28;20211;-23
2021/12/13 02:57:36;;;;;;;1.27;1.17;;;18.10;56.70;;;;;;4997829;28;20561;-24
2021/12/13 03:00:17;;;;;;;1.10;1.00;;;18.10;56.80;;;;;;4997650;28;20300;-23
2021/12/13 03:02:48;;;;;;;1.30;1.20;;;18.10;56.90;;;;;;4995410;28;20202;-24
2021/12/13 03:05:22;;;;;;;1.20;1.10;;;18.10;56.90;;;;;;4997984;28;20221;-23
2021/12/13 03:07:53;;;;;;;1.87;1.10;;;18.10;57.00;;;;;;4998524;28;20194;-25
2021/12/13 03:10:24;;;;;;;1.63;1.10;;;18.00;57.00;;;;;;4981408;28;20198;-23
2021/12/13 03:12:50;;;;;;;2.17;1.10;;;18.00;57.00;;;;;;4996838;28;20241;-22
2021/12/13 03:15:19;;;;;;;1.40;0.90;;;18.00;57.10;;;;;;4997630;28;20199;-22
2021/12/13 03:18:07;;;;;;;1.20;1.10;;;18.00;57.10;;;;;;4980993;28;20213;-22
2021/12/13 03:20:58;;;;;;;1.10;1.00;;;18.00;57.10;;;;;;4981342;28;20212;-21
2021/12/13 03:23:54;;;;;;;1.20;1.10;;;18.00;57.20;;;;;;4998043;28;20209;-22
2021/12/13 03:26:34;;;;;;;1.07;0.97;;;18.00;57.20;;;;;;4997455;28;20276;-22
2021/12/13 03:29:11;;;;;;;1.07;0.97;;;18.00;57.30;;;;;;4998553;28;20451;-22
2021/12/13 03:31:42;;;;;;;1.20;1.10;;;18.00;57.30;;;;;;4998689;28;20244;-23
2021/12/13 03:34:14;;;;;;;1.60;1.00;;;18.00;57.40;;;;;;4980947;28;20206;-22
2021/12/13 03:36:56;;;;;;;1.20;1.03;;;18.00;57.40;;;;;;4980824;28;20196;-25
2021/12/13 03:39:29;;;;;;;1.30;1.20;;;17.90;57.40;;;;;;4981135;28;20256;-23
2021/12/13 03:41:58;;;;;;;1.27;1.17;;;17.90;57.60;;;;;;4997763;28;20209;-21
2021/12/13 03:44:32;;;;;;;1.10;1.00;;;17.90;57.60;;;;;;4998011;28;20629;-23
2021/12/13 03:47:09;;;;;;;0.90;0.90;;;17.90;57.60;;;;;;4997861;28;20186;-21
2021/12/13 03:49:48;;;;;;;1.27;1.17;;;17.80;57.70;;;;;;4981354;28;20205;-23
2021/12/13 03:52:18;;;;;;;1.00;1.00;;;17.80;57.80;;;;;;4997047;28;20293;-21
2021/12/13 03:54:44;;;;;;;1.03;0.93;;;17.80;57.80;;;;;;4980420;28;20188;-22
2021/12/13 03:57:14;;;;;;;1.10;1.00;;;17.80;57.90;;;;;;4980155;28;20236;-23
2021/12/13 03:59:42;;;;;;;0.90;0.90;;;17.80;58.10;;;;;;4980082;28;20208;-22
2021/12/13 04:02:18;;;;;;;0.90;0.90;;;19.70;54.90;;;;;;4997338;28;20205;-21
2021/12/13 04:04:54;;;;;;;0.80;0.80;;;21.40;49.80;;;;;;4996827;28;20222;-23
2021/12/13 04:07:40;;;;;;;1.00;0.90;;;21.70;48.50;;;;;;4980834;28;20563;-26
2021/12/13 04:10:17;;;;;;;0.90;0.90;;;21.80;48.10;;;;;;4996991;28;20203;-25
2021/12/13 04:12:49;;;;;;;1.80;0.90;;;21.90;47.80;;;;;;4998505;28;20231;-23
2021/12/13 04:16:07;;;;;;;1.00;0.90;;;22.20;47.50;;;;;;4984140;28;20210;-21
2021/12/13 04:19:25;;;;;;;1.00;0.97;;;22.40;47.00;;;;;;5001345;28;20190;-27
2021/12/13 04:21:57;;;;;;;0.90;0.90;;;22.60;46.70;;;;;;4986721;28;20225;-24
2021/12/13 04:24:44;;;;;;;1.07;0.83;;;22.70;46.60;;;;;;5000056;28;20232;-23
2021/12/13 04:27:24;;;;;;;1.00;0.90;;;22.90;46.30;;;;;;4984171;28;20196;-22
2021/12/13 04:29:55;;;;;;;0.90;0.90;;;23.30;46.00;;;;;;4983954;28;20197;-22
2021/12/13 04:32:30;;;;;;;0.93;0.83;;;23.40;45.70;;;;;;4983798;28;20198;-25
2021/12/13 04:35:03;;;;;;;1.00;0.77;;;23.60;45.50;;;;;;5000159;28;20194;-23
2021/12/13 04:37:35;;;;;;;1.20;1.00;;;23.50;45.50;;;;;;5001559;28;20198;-23
2021/12/13 04:40:07;;;;;;;0.90;0.80;;;23.40;45.60;;;;;;4983651;28;20208;-23
2021/12/13 04:42:33;;;;;;;0.90;0.90;;;23.30;45.70;;;;;;5000227;28;20261;-25
2021/12/13 04:45:05;;;;;;;0.90;0.90;;;23.30;45.70;;;;;;5000214;28;20233;-23
2021/12/13 04:47:39;;;;;;;0.73;0.73;;;23.40;45.80;;;;;;5000572;28;20458;-23
2021/12/13 04:50:17;;;;;;;0.80;0.80;;;23.50;45.70;;;;;;5000217;28;20230;-22
2021/12/13 04:52:45;;;;;;;0.80;0.80;;;23.40;45.70;;;;;;4984037;28;20245;-22
2021/12/13 04:55:23;;;;;;;1.53;1.00;;;23.30;45.80;;;;;;4983804;28;20308;-21
2021/12/13 04:57:51;;;;;;;1.07;0.97;;;23.20;45.90;;;;;;5000297;28;20174;-23
2021/12/13 05:00:19;;;;;;;0.80;0.80;;;23.10;46.20;;;;;;5000140;28;20285;-22
2021/12/13 05:02:49;;;;;;;0.80;0.80;;;22.90;46.40;;;;;;5000248;28;20190;-24
2021/12/13 05:05:15;;;;;;;0.87;0.87;;;22.60;46.60;;;;;;4982450;28;20685;-25
2021/12/13 05:07:44;;;;;;;0.90;0.90;;;22.50;47.00;;;;;;4999667;28;20492;-24
2021/12/13 05:10:12;;;;;;;0.80;0.80;;;22.10;47.30;;;;;;4999749;28;20206;-22
2021/12/13 05:12:38;;;;;;;1.00;0.90;;;22.00;48.10;;;;;;4999974;28;20194;-22
2021/12/13 05:15:09;;;;;;;1.00;0.90;;;21.80;48.10;;;;;;5000229;28;20198;-26
2021/12/13 05:17:45;;;;;;;0.97;0.87;;;21.60;48.50;;;;;;4999333;28;20198;-23
2021/12/13 05:20:14;;;;;;;0.90;0.90;;;21.50;48.70;;;;;;4983141;28;20203;-25
2021/12/13 05:22:54;;;;;;;0.90;0.90;;;21.30;49.10;;;;;;4982953;28;20196;-23
2021/12/13 05:25:36;;;;;;;0.80;0.80;;;21.00;49.50;;;;;;4980970;28;20224;-22
2021/12/13 05:28:44;;;;;;;0.90;0.90;;;20.90;49.90;;;;;;4999149;28;20185;-23
2021/12/13 05:31:16;;;;;;;1.40;0.87;;;20.70;50.30;;;;;;4982379;28;20604;-24
2021/12/13 05:33:42;;;;;;;0.70;0.70;;;20.60;50.70;;;;;;4982866;28;20583;-21
2021/12/13 05:36:18;;;;;;;0.70;0.70;;;20.50;51.10;;;;;;4999038;28;20490;-27
2021/12/13 05:38:48;;;;;;;0.90;0.90;;;20.30;51.40;;;;;;4998952;28;20195;-22
2021/12/13 05:41:25;;;;;;;1.00;0.90;;;20.20;52.20;;;;;;4999509;28;20236;-21
2021/12/13 05:43:57;;;;;;;1.10;1.00;;;20.10;52.20;;;;;;4999741;28;20196;-25
2021/12/13 05:46:39;;;;;;;0.87;0.80;;;20.00;52.50;;;;;;4981766;28;20234;-23
2021/12/13 05:49:17;;;;;;;1.10;0.83;;;20.10;52.60;;;;;;4998038;28;20476;-23
2021/12/13 05:51:46;;;;;;;0.90;0.90;;;20.30;52.30;;;;;;4998872;28;20202;-23
2021/12/13 05:54:15;;;;;;;1.10;1.00;;;21.00;51.20;;;;;;4999005;28;20712;-24
2021/12/13 05:57:01;;;;;;;0.83;0.83;;;21.80;49.60;;;;;;4998544;28;20205;-23
2021/12/13 05:59:33;;;;;;;1.30;1.10;;;22.80;47.90;;;;;;4982371;28;20204;-20
2021/12/13 06:02:01;;;;;;;0.80;0.80;;;23.40;46.60;;;;;;4981467;28;20252;-23
2021/12/13 06:04:30;;;;;;;0.83;0.83;;;23.40;46.20;;;;;;4998084;28;20218;-26
2021/12/13 06:06:56;;;;;;;0.90;0.90;;;23.30;46.20;;;;;;4998236;28;20214;-23
2021/12/13 06:09:53;;;;;;;0.90;0.90;;;23.10;46.30;;;;;;4998305;28;20206;-21
2021/12/13 06:12:34;;;;;;;1.20;0.90;;;23.00;46.60;;;;;;4997641;28;20212;-23
2021/12/13 06:15:16;;;;;;;1.00;0.90;;;22.90;46.70;;;;;;4997285;28;20206;-23
2021/12/13 06:18:04;;;;;;;0.97;0.80;;;22.90;47.10;;;;;;4997866;28;20261;-25
2021/12/13 06:20:58;;;;;;;0.90;0.90;;;22.90;46.60;;;;;;4996078;28;20213;-26
2021/12/13 06:23:27;;;;;;;0.90;0.90;;;23.00;46.70;;;;;;4998319;28;20257;-25
2021/12/13 06:26:23;;;;;;;0.80;0.80;;;23.00;46.60;;;;;;4980547;28;20323;-24
2021/12/13 06:28:59;;;;;;;1.10;0.93;;;22.80;46.80;;;;;;4977239;28;20213;-22
2021/12/13 06:31:38;;;;;;;0.90;0.90;;;22.70;47.00;;;;;;4980125;28;20205;-23
2021/12/13 06:34:07;;;;;;;0.80;0.80;;;22.50;47.30;;;;;;4979794;28;20194;-24
2021/12/13 06:36:45;;;;;;;0.93;0.70;;;22.40;47.50;;;;;;4979500;28;20463;-25
2021/12/13 06:39:19;;;;;;;0.90;0.90;;;22.30;47.60;;;;;;4996323;28;20185;-24
2021/12/13 06:41:59;;;;;;;1.07;0.73;;;22.20;47.80;;;;;;4996191;28;20206;-23
2021/12/13 06:44:34;;;;;;;0.87;0.87;;;22.00;48.00;;;;;;4979795;28;20744;-24
2021/12/13 06:47:03;;;;;;;0.80;0.80;;;21.90;48.30;;;;;;4997578;28;20226;-25
2021/12/13 06:49:45;;;;;;;1.00;0.73;;;21.90;48.50;;;;;;4996527;28;20206;-22
2021/12/13 06:52:11;;;;;;;0.70;0.70;;;21.70;48.60;;;;;;4996481;28;20201;-22
2021/12/13 06:55:06;;;;;;;0.93;0.80;;;21.50;49.00;;;;;;4996437;28;20216;-23
2021/12/13 06:57:36;;;;;;;0.90;0.90;;;21.40;49.30;;;;;;4996557;28;20196;-23
2021/12/13 07:00:15;;;;;;;1.60;1.00;;;21.20;49.60;;;;;;4996988;28;20678;-23
2021/12/13 07:02:46;;;;;;;0.93;0.90;;;21.20;49.80;;;;;;4996852;28;20235;-23
2021/12/13 07:05:20;;;;;;;0.77;0.77;;;21.10;50.00;;;;;;4996955;28;20589;-22
2021/12/13 07:07:55;;;;;;;1.70;0.90;;;21.00;50.30;;;;;;4980089;28;20203;-20
2021/12/13 07:10:38;;;;;;;1.93;0.90;;;20.90;50.60;;;;;;4996806;28;20261;-23
2021/12/13 07:13:32;;;;;;;0.80;0.80;;;20.80;51.00;;;;;;4979494;28;20259;-23
2021/12/13 07:16:13;;;;;;;2.10;0.80;;;20.70;51.40;;;;;;4979929;28;20211;-23
2021/12/13 07:18:46;;;;;;;1.97;0.90;;;20.70;51.90;;;;;;4978793;28;20210;-23
2021/12/13 07:21:13;;;;;;;2.50;0.83;;;20.60;52.00;;;;;;4995502;28;20194;-25
2021/12/13 07:23:57;;;;;;;0.87;0.80;;;20.70;52.20;;;;;;4978786;28;20251;-24
2021/12/13 07:26:34;;;;;;;0.90;0.80;;;20.80;52.10;;;;;;4978970;28;20201;-24
2021/12/13 07:29:21;;;;;;;1.10;0.87;;;20.90;51.80;;;;;;4960268;28;20200;-23
2021/12/13 07:32:06;;;;;;;1.80;1.10;;;21.20;51.30;;;;;;4960899;28;20205;-25
2021/12/13 07:34:33;;;;;;;1.10;1.00;;;21.60;50.70;;;;;;4960254;28;20197;-23
2021/12/13 07:37:02;;;;;;;0.87;0.80;;;22.00;49.90;;;;;;4976435;28;20256;-24
2021/12/13 07:39:33;;;;;;;1.80;1.13;;;22.30;49.40;;;;;;4959455;28;20516;-23
2021/12/13 07:42:09;;;;;;;1.00;0.90;;;22.60;48.90;;;;;;4958981;28;20323;-23
2021/12/13 07:44:43;;;;;;;1.23;1.13;;;22.90;48.40;;;;;;4959563;28;20214;-24
2021/12/13 07:47:29;;;;;;;1.30;1.20;;;23.10;47.80;;;;;;4976881;28;20194;-21
2021/12/13 07:49:59;;;;;;;1.73;1.00;;;23.30;47.40;;;;;;4981519;28;20195;-23
2021/12/13 07:52:34;;;;;;;2.80;1.00;;;23.40;47.20;;;;;;4962188;28;20209;-22
2021/12/13 07:55:22;;;;;;;2.37;1.10;;;23.40;47.20;;;;;;4956733;28;20200;-24
2021/12/13 07:57:49;;;;;;;1.43;1.00;;;23.50;47.20;;;;;;4973389;28;20876;-23
2021/12/13 08:00:20;;;;;;;1.40;1.10;;;23.40;47.10;;;;;;4973951;28;20428;-23
2021/12/13 08:03:03;;;;;;;1.70;1.20;;;23.30;47.20;;;;;;4954703;28;20193;-23
2021/12/13 08:05:36;;;;;;;1.83;1.20;;;23.20;47.30;;;;;;4971000;28;20211;-21
2021/12/13 08:08:03;;;;;;;3.40;1.30;;;23.10;47.40;;;;;;4954705;28;20190;-23
2021/12/13 08:10:33;;;;;;;1.90;1.30;;;23.00;47.70;;;;;;4956377;28;20205;-22
2021/12/13 08:13:05;;;;;;;1.70;1.30;;;22.80;47.80;;;;;;4956760;28;20187;-23
2021/12/13 08:15:45;;;;;;;1.60;1.10;;;22.60;48.20;;;;;;4956048;28;20201;-24
2021/12/13 08:18:22;;;;;;;2.13;1.40;;;22.50;48.50;;;;;;4972782;28;20181;-23
2021/12/13 08:20:53;;;;;;;2.43;1.20;;;22.30;48.80;;;;;;4971364;28;20196;-23
2021/12/13 08:23:44;;;;;;;3.23;1.27;;;22.10;49.20;;;;;;4954735;28;20229;-21
2021/12/13 08:26:13;;;;;;;4.17;1.50;;;22.00;49.50;;;;;;4953425;28;20295;-22
2021/12/13 08:28:43;;;;;;;2.50;1.13;;;21.80;49.90;;;;;;4954761;28;20305;-22
2021/12/13 08:31:20;;;;;;;1.70;1.30;;;21.60;50.20;;;;;;4969820;28;20222;-23
2021/12/13 08:33:55;;;;;;;4.50;1.77;;;21.60;50.60;;;;;;4971784;28;20293;-22
2021/12/13 08:36:24;;;;;;;3.07;1.60;;;21.50;50.80;;;;;;4955005;28;20190;-24
2021/12/13 08:39:10;;;;;;;3.07;1.60;;;21.40;51.10;;;;;;4972233;28;20198;-24
2021/12/13 08:41:41;;;;;;;1.67;1.27;;;21.30;51.40;;;;;;4972490;28;20221;-23
2021/12/13 08:44:12;;;;;;;2.80;1.60;;;21.10;51.70;;;;;;4974281;28;20666;-23
2021/12/13 08:46:56;;;;;;;2.33;1.40;;;21.10;52.10;;;;;;4955042;28;20315;-23
2021/12/13 08:49:39;;;;;;;3.10;1.73;;;20.90;52.50;;;;;;4954353;28;20625;-24
2021/12/13 08:52:14;;;;;;;2.53;1.57;;;20.70;52.90;;;;;;4969809;28;20473;-23
2021/12/13 08:54:56;;;;;;;3.70;1.57;;;20.60;53.40;;;;;;4972526;28;20250;-23
2021/12/13 08:57:45;;;;;;;2.27;1.67;;;20.40;54.30;;;;;;4956104;28;20525;-21
2021/12/13 09:00:14;;;;;;;1.87;1.50;;;20.20;54.50;;;;;;4962326;28;20208;-24
2021/12/13 09:02:54;;;;;;;2.10;1.70;;;20.10;55.10;;;;;;4972365;28;20204;-21
2021/12/13 09:05:30;;;;;;;3.93;2.03;;;19.90;55.60;;;;;;4971496;28;20224;-24
2021/12/13 09:08:01;;;;;;;2.47;1.50;;;19.80;56.00;;;;;;4973253;28;20195;-21
2021/12/13 09:10:51;;;;;;;2.80;1.50;;;19.80;56.40;;;;;;4971262;28;20206;-22
2021/12/13 09:13:31;;;;;;;4.40;1.77;;;20.20;55.60;;;;;;4953269;28;20350;-23
2021/12/13 09:15:58;;;;;;;3.00;1.70;;;20.80;54.10;;;;;;4971056;28;20652;-21
2021/12/13 09:18:24;;;;;;;2.73;1.50;;;21.70;51.90;;;;;;4956683;28;20312;-25
2021/12/13 09:20:55;;;;;;;3.40;1.50;;;22.50;50.00;;;;;;4977458;28;20287;-22
2021/12/13 09:23:21;;;;;;;2.97;1.77;;;23.10;48.90;;;;;;4993345;28;20181;-22
2021/12/13 09:26:05;;;;;;;3.10;1.83;;;23.60;47.80;;;;;;4992430;28;20301;-21
2021/12/13 09:28:45;;;;;;;2.03;1.53;;;24.00;47.10;;;;;;4992694;28;20197;-21
2021/12/13 09:31:23;;;;;;;4.73;1.67;;;24.00;46.80;;;;;;4990323;28;20206;-23
2021/12/13 09:33:58;;;;;;;3.90;1.60;;;23.90;46.90;;;;;;4989261;28;20220;-23
2021/12/13 09:36:32;;;;;;;3.47;1.70;;;23.80;47.00;;;;;;4989591;28;20508;-23
2021/12/13 09:39:16;;;;;;;2.20;1.70;;;23.80;47.00;;;;;;4973867;28;20194;-21
2021/12/13 09:41:52;;;;;;;1.67;1.57;;;23.80;47.00;;;;;;4974221;28;20194;-24
2021/12/13 09:44:37;;;;;;;1.70;1.50;;;23.60;47.10;;;;;;4989547;28;20299;-23
2021/12/13 09:47:29;;;;;;;2.33;1.40;;;23.50;47.30;;;;;;4974483;28;20705;-22
2021/12/13 09:49:55;;;;;;;3.13;1.80;;;23.20;47.70;;;;;;4971160;28;20483;-23
2021/12/13 09:52:26;;;;;;;1.80;1.40;;;23.10;47.90;;;;;;4991248;28;20201;-23
2021/12/13 09:55:05;;;;;;;1.90;1.60;;;22.80;48.40;;;;;;4990575;28;20181;-25
2021/12/13 09:57:42;;;;;;;2.53;1.60;;;22.60;48.70;;;;;;4988401;28;20582;-23
2021/12/13 10:00:15;;;;;;;2.60;1.33;;;22.40;49.20;;;;;;4972663;28;20252;-22
2021/12/13 10:02:44;;;;;;;2.03;1.47;;;22.20;49.60;;;;;;4991163;28;20271;-23
2021/12/13 10:05:18;;;;;;;1.93;1.53;;;22.00;50.00;;;;;;4973452;28;20241;-20
2021/12/13 10:07:52;;;;;;;2.63;1.40;;;21.80;50.60;;;;;;4990887;28;20216;-22
2021/12/13 10:10:23;;;;;;;3.30;1.53;;;21.70;50.70;;;;;;4989516;28;20482;-25
2021/12/13 10:12:55;;;;;;;1.63;1.53;;;21.50;51.20;;;;;;4972821;28;20198;-23
2021/12/13 10:15:43;;;;;;;2.80;1.90;;;21.30;51.80;;;;;;4971428;28;20195;-24
2021/12/13 10:18:17;;;;;;;3.40;1.43;;;21.10;52.50;;;;;;4984897;28;20583;-22
2021/12/13 10:20:51;;;;;;;2.97;1.73;;;20.90;53.20;;;;;;4989973;28;20218;-25
2021/12/13 10:23:22;;;;;;;3.03;1.30;;;20.70;53.80;;;;;;4985433;28;20208;-21
2021/12/13 10:25:51;;;;;;;1.97;1.53;;;20.50;54.50;;;;;;4972217;28;20218;-22
2021/12/13 10:28:24;;;;;;;4.00;1.60;;;20.40;55.00;;;;;;4972439;28;20275;-23
2021/12/13 10:30:59;;;;;;;3.27;1.63;;;20.30;55.60;;;;;;4990997;28;20205;-24
2021/12/13 10:33:27;;;;;;;3.10;1.70;;;20.10;56.60;;;;;;4972737;28;20257;-23
2021/12/13 10:35:54;;;;;;;6.40;2.10;;;20.10;57.80;;;;;;4972746;28;20422;-25
2021/12/13 10:38:27;;;;;;;5.37;2.10;;;20.20;61.20;;;;;;4991166;28;20416;-23
2021/12/13 10:41:08;;;;;;;7.73;1.90;;;20.30;61.40;;;;;;4972193;28;20581;-23
2021/12/13 10:43:43;;;;;;;5.70;2.50;;;20.50;60.40;;;;;;4990319;28;20210;-21
2021/12/13 10:46:26;;;;;;;5.47;1.90;;;20.80;59.40;;;;;;4989013;28;20213;-21
2021/12/13 10:49:06;;;;;;;5.27;1.80;;;21.10;58.10;;;;;;4990000;28;20202;-24
2021/12/13 10:51:37;;;;;;;4.13;1.80;;;21.40;56.70;;;;;;4972014;28;20203;-23
2021/12/13 10:54:11;;;;;;;3.97;1.70;;;21.80;55.60;;;;;;4972395;28;20296;-21
2021/12/13 10:56:47;;;;;;;3.07;1.90;;;22.10;54.30;;;;;;4990706;28;20230;-23
2021/12/13 10:59:17;;;;;;;5.53;1.73;;;22.40;53.20;;;;;;4990192;28;20189;-24
2021/12/13 11:01:48;;;;;;;7.17;1.70;;;22.70;52.20;;;;;;4989102;28;20613;-24
2021/12/13 11:04:19;;;;;;;5.47;2.03;;;22.80;51.70;;;;;;4970309;28;20509;-24
2021/12/13 11:06:46;;;;;;;4.67;1.83;;;22.90;51.40;;;;;;4969060;28;20215;-22
2021/12/13 11:09:16;;;;;;;3.67;1.70;;;22.80;51.40;;;;;;4971251;28;20333;-24
2021/12/13 11:11:52;;;;;;;4.20;1.60;;;22.60;51.60;;;;;;4988918;28;20221;-21
2021/12/13 11:14:21;;;;;;;5.67;1.50;;;22.50;51.80;;;;;;4989518;28;20204;-22
2021/12/13 11:16:52;;;;;;;5.90;1.63;;;22.10;52.90;;;;;;4989217;28;20193;-23
2021/12/13 11:19:22;;;;;;;5.73;1.60;;;22.00;53.10;;;;;;4971851;28;20237;-21
2021/12/13 11:21:51;;;;;;;8.73;1.90;;;21.80;54.50;;;;;;4972562;28;20463;-24
2021/12/13 11:24:22;;;;;;;9.23;2.50;;;21.70;55.00;;;;;;4988340;28;20610;-25
2021/12/13 11:26:52;;;;;;;7.27;1.97;;;21.60;55.10;;;;;;4987282;28;20198;-21
2021/12/13 11:29:18;;;;;;;4.40;1.70;;;21.40;55.70;;;;;;4988231;28;20212;-22
2021/12/13 11:31:52;;;;;;;4.47;1.60;;;21.30;56.30;;;;;;4986899;28;20178;-24
2021/12/13 11:34:57;;;;;;;6.57;1.73;;;21.10;57.00;;;;;;4989143;28;20186;-24
2021/12/13 11:37:41;;;;;;;5.60;1.80;;;20.90;57.80;;;;;;4957056;28;20209;-23
2021/12/13 11:40:54;;;;;;;4.90;1.70;;;20.70;58.20;;;;;;4971925;28;20197;-23
2021/12/13 11:43:57;;;;;;;2.73;1.77;;;20.50;58.90;;;;;;4971756;28;20625;-21
2021/12/13 11:46:41;;;;;;;4.20;1.77;;;20.40;59.60;;;;;;4970520;28;20609;-24
2021/12/13 11:49:26;;;;;;;4.17;1.60;;;20.30;60.00;;;;;;4988677;28;20194;-23
2021/12/13 11:52:15;;;;;;;5.00;1.77;;;20.20;60.50;;;;;;4988046;28;20199;-23
2021/12/13 11:55:05;;;;;;;3.23;1.53;;;20.20;61.10;;;;;;4941262;28;20214;-23
2021/12/13 11:58:08;;;;;;;4.77;1.40;;;20.10;61.10;;;;;;4988766;28;20345;-23
2021/12/13 12:00:57;;;;;;;5.40;1.40;;;20.20;61.20;;;;;;4989153;28;20189;-22
2021/12/13 12:03:53;;;;;;;3.47;1.70;;;20.30;60.80;;;;;;4987796;28;20218;-21
2021/12/13 12:06:44;;;;;;;2.67;1.40;;;20.40;60.10;;;;;;4988441;28;20330;-24
2021/12/13 12:09:43;;;;;;;1.63;1.37;;;20.80;59.00;;;;;;4972137;28;20204;-23
2021/12/13 12:12:37;;;;;;;2.30;1.50;;;21.20;57.80;;;;;;4968250;28;20505;-22
2021/12/13 12:15:04;;;;;;;3.03;1.60;;;21.60;56.20;;;;;;4985867;28;20261;-25
2021/12/13 12:17:32;;;;;;;4.60;1.70;;;22.20;54.50;;;;;;4970617;28;20209;-24
2021/12/13 12:19:59;;;;;;;6.07;2.07;;;22.60;53.30;;;;;;4971084;28;20225;-22
2021/12/13 12:22:37;;;;;;;4.40;1.60;;;22.80;52.60;;;;;;4987688;28;20194;-24
2021/12/13 12:25:04;;;;;;;3.23;1.50;;;22.90;52.10;;;;;;4970394;28;20214;-22
2021/12/13 12:27:34;;;;;;;3.33;1.43;;;23.00;51.90;;;;;;4971077;28;20396;-23
2021/12/13 12:30:08;;;;;;;3.27;1.57;;;23.00;51.70;;;;;;4970991;28;20465;-26
2021/12/13 12:32:38;;;;;;;1.83;1.17;;;22.90;51.60;;;;;;4970823;28;20280;-23
2021/12/13 12:35:20;;;;;;;3.60;1.53;;;22.80;51.90;;;;;;4971106;28;20198;-24
2021/12/13 12:37:59;;;;;;;7.10;1.60;;;22.50;52.20;;;;;;4988994;28;20259;-24
2021/12/13 12:41:07;;;;;;;2.73;1.30;;;22.20;52.80;;;;;;4991201;28;20446;-22
2021/12/13 12:43:40;;;;;;;3.57;1.70;;;21.90;53.50;;;;;;4945446;28;20210;-23
2021/12/13 12:46:13;;;;;;;3.37;2.07;;;21.70;54.40;;;;;;4973909;28;20388;-22
2021/12/13 12:48:46;;;;;;;2.63;1.50;;;21.40;55.00;;;;;;4990408;28;20201;-23
2021/12/13 12:51:29;;;;;;;4.20;1.57;;;21.10;55.90;;;;;;4975032;28;20518;-24
2021/12/13 12:54:09;;;;;;;6.03;1.80;;;21.00;56.80;;;;;;4986557;28;20567;-23
2021/12/13 12:56:40;;;;;;;2.30;1.30;;;20.70;57.50;;;;;;4990286;28;20593;-23
2021/12/13 12:59:22;;;;;;;2.33;1.40;;;20.60;58.10;;;;;;4973315;28;20194;-24
2021/12/13 13:01:58;;;;;;;2.87;1.63;;;20.40;58.60;;;;;;4991294;28;20178;-22
2021/12/13 13:04:50;;;;;;;4.57;1.50;;;20.30;59.10;;;;;;4974493;28;20225;-22
2021/12/13 13:07:23;;;;;;;3.40;1.60;;;20.20;59.40;;;;;;4963078;28;20202;-24
2021/12/13 13:10:03;;;;;;;3.97;1.70;;;20.20;59.90;;;;;;4990846;28;20305;-22
2021/12/13 13:12:29;;;;;;;2.80;1.43;;;20.20;60.20;;;;;;4991597;28;20225;-25
2021/12/13 13:15:09;;;;;;;4.83;1.70;;;20.20;60.10;;;;;;4973615;28;20199;-22
2021/12/13 13:17:41;;;;;;;3.87;1.50;;;20.30;60.00;;;;;;4973235;28;20229;-23
2021/12/13 13:20:16;;;;;;;4.00;1.80;;;20.40;59.50;;;;;;4988941;28;20645;-23
2021/12/13 13:22:44;;;;;;;3.43;1.50;;;20.80;58.20;;;;;;4988918;28;20266;-23
2021/12/13 13:25:15;;;;;;;2.20;1.40;;;21.30;56.60;;;;;;4990291;28;20362;-23
2021/12/13 13:27:42;;;;;;;2.73;1.80;;;22.00;54.60;;;;;;4973322;28;20256;-21
2021/12/13 13:30:20;;;;;;;2.53;1.90;;;22.50;53.20;;;;;;4991034;28;20202;-24
2021/12/13 13:32:46;;;;;;;3.50;1.70;;;22.90;52.00;;;;;;4967770;28;20206;-26
2021/12/13 13:35:13;;;;;;;2.50;1.50;;;23.20;51.20;;;;;;4977999;28;20191;-22
2021/12/13 13:37:42;;;;;;;2.93;1.70;;;23.30;50.70;;;;;;4977310;28;20565;-24
2021/12/13 13:40:14;;;;;;;3.97;1.70;;;23.20;50.50;;;;;;4968985;28;20658;-25